This is the latest recevied weather packets stored in our database for station/object G8PZT. If no packets are shown the sender has not sent any weather packets the latest 1 day(s).
| Time | Temp. | Humidity | Pressure | Rain* | Wind** | Luminosity | Snow |
|---|---|---|---|---|---|---|---|
| 1778088716 | 14.44° C | 23% | - | 0 mm | - | - | - |
| 1778088116 | 13.89° C | 23% | - | 0 mm | - | - | - |
| 1778088003 | 13.89° C | 23% | - | 0 mm | - | - | - |
| 1778085602 | 14.44° C | 23% | - | 0 mm | - | - | - |
| 1778081516 | 20.56° C | 20% | - | 0 mm | - | - | - |
| 1778080916 | 18.89° C | 21% | - | 0 mm | - | - | - |
| 1778080316 | 15.56° C | 22% | - | 0 mm | - | - | - |
| 1778079716 | 15.56° C | 22% | - | 0 mm | - | - | - |
| 1778079116 | 15.56° C | 22% | - | 0 mm | - | - | - |
| 1778077316 | 15.56° C | 22% | - | 0 mm | - | - | - |
| 1778076115 | 16.11° C | 22% | - | 0 mm | - | - | - |
| 1778074916 | 16.11° C | 22% | - | 0 mm | - | - | - |
| 1778074803 | 16.11° C | 22% | - | 0 mm | - | - | - |
| 1778073116 | 15° C | 22% | - | 0 mm | - | - | - |
| 1778072516 | 17.78° C | 21% | - | 0 mm | - | - | - |
| 1778067603 | 14.44° C | 23% | - | 0 mm | - | - | - |
| 1778066516 | 13.89° C | 23% | - | 0 mm | - | - | - |
| 1778065916 | 13.89° C | 23% | - | 0 mm | - | - | - |
| 1778064716 | 15° C | 23% | - | 0 mm | - | - | - |
| 1778064116 | 14.44° C | 23% | - | 0 mm | - | - | - |
| 1778064003 | 13.89° C | 23% | - | 0 mm | - | - | - |
| 1778062916 | 12.22° C | 24% | - | 0 mm | - | - | - |
| 1778057516 | 8.89° C | 36% | - | 0 mm | - | - | - |
| 1778056916 | 8.33° C | 37% | - | 0 mm | - | - | - |
| 1778056316 | 8.33° C | 36% | - | 0 mm | - | - | - |
* Rain latest hour (hover to see other rain measurements)
** Current wind speed in m/s (hover to see current wind gust speed)